Time;durP1;ratioP1;P1;durP2;ratioP2;P2;SDS_P1;SDS_P2;PMS_P1;PMS_P2;Temp;Humidity;BMP_temperature;BMP_pressure;BME280_temperature;BME280_humidity;BME280_pressure;Samples;Min_cycle;Max_cycle;Signal;HPM_P1;HPM_P2
2023/06/14 00:00:20;;;;;;;6.13;2.10;;;16.90;60.40;;;;;;5137303;28;20127;-78
2023/06/14 00:02:47;;;;;;;5.63;2.40;;;16.90;60.50;;;;;;5135857;28;20036;-78
2023/06/14 00:05:14;;;;;;;4.65;2.08;;;16.90;60.60;;;;;;5116833;28;20054;-77
2023/06/14 00:07:43;;;;;;;5.55;2.60;;;16.80;60.70;;;;;;5148273;27;20043;-78
2023/06/14 00:10:12;;;;;;;7.32;2.40;;;16.80;60.90;;;;;;5137942;27;20103;-78
2023/06/14 00:12:38;;;;;;;12.73;2.92;;;16.70;61.00;;;;;;5119939;27;20042;-78
2023/06/14 00:15:05;;;;;;;4.38;2.03;;;16.70;61.00;;;;;;5152196;27;20232;-79
2023/06/14 00:17:31;;;;;;;9.30;2.92;;;16.70;61.20;;;;;;5136709;27;20038;-78
2023/06/14 00:19:58;;;;;;;4.60;2.20;;;16.70;61.30;;;;;;5135937;27;20054;-78
2023/06/14 00:22:24;;;;;;;5.55;2.45;;;16.60;61.30;;;;;;5134040;27;20058;-79
2023/06/14 00:24:51;;;;;;;4.03;2.30;;;16.60;61.40;;;;;;5155565;27;20039;-77
2023/06/14 00:27:17;;;;;;;6.30;2.28;;;16.50;61.60;;;;;;5138301;27;20031;-77
2023/06/14 00:29:43;;;;;;;10.98;2.67;;;16.50;61.60;;;;;;5138288;27;20476;-77
2023/06/14 00:32:08;;;;;;;3.60;2.22;;;16.50;61.90;;;;;;5155484;27;20074;-77
2023/06/14 00:34:34;;;;;;;7.43;2.80;;;16.40;62.00;;;;;;5155146;27;20043;-76
2023/06/14 00:37:01;;;;;;;7.45;2.08;;;16.40;62.20;;;;;;5155000;27;20057;-77
2023/06/14 00:39:27;;;;;;;3.97;1.75;;;16.30;62.20;;;;;;5151535;27;20042;-77
2023/06/14 00:41:52;;;;;;;3.17;2.00;;;16.20;62.50;;;;;;5134652;27;20042;-77
2023/06/14 00:44:18;;;;;;;5.38;2.35;;;16.20;62.70;;;;;;5134245;27;20407;-77
2023/06/14 00:46:47;;;;;;;4.43;2.20;;;16.20;62.80;;;;;;5134041;27;20038;-78
2023/06/14 00:49:17;;;;;;;6.93;2.78;;;16.10;63.10;;;;;;5116944;27;20038;-77
2023/06/14 00:51:43;;;;;;;5.85;1.98;;;16.20;63.20;;;;;;5134297;27;20177;-77
2023/06/14 00:54:09;;;;;;;4.38;2.47;;;16.10;63.30;;;;;;5134197;27;20035;-77
2023/06/14 00:56:36;;;;;;;5.18;2.13;;;16.10;63.40;;;;;;5116657;27;20035;-78
2023/06/14 00:59:03;;;;;;;5.95;2.22;;;16.00;63.50;;;;;;5132926;27;20039;-77
2023/06/14 01:01:32;;;;;;;9.48;2.35;;;16.00;63.60;;;;;;5116760;27;20526;-77
2023/06/14 01:03:59;;;;;;;5.22;2.10;;;16.00;63.80;;;;;;5116608;27;20035;-77
2023/06/14 01:06:42;;;;;;;4.53;2.45;;;16.00;63.80;;;;;;5133645;27;20049;-77
2023/06/14 01:09:29;;;;;;;3.30;2.10;;;16.00;64.40;;;;;;5133930;27;20042;-77
2023/06/14 01:12:09;;;;;;;5.13;2.28;;;16.00;65.00;;;;;;5133604;27;20043;-76
2023/06/14 01:14:35;;;;;;;5.55;1.92;;;15.90;64.70;;;;;;5132801;27;20387;-77
2023/06/14 01:17:02;;;;;;;6.53;2.00;;;15.90;64.60;;;;;;5133351;27;20035;-77
2023/06/14 01:19:28;;;;;;;3.25;1.80;;;15.80;64.90;;;;;;5116444;27;20410;-77
2023/06/14 01:21:56;;;;;;;5.32;2.45;;;15.90;65.00;;;;;;5099274;27;20047;-77
2023/06/14 01:24:25;;;;;;;5.45;2.25;;;15.80;65.30;;;;;;5099267;27;20126;-77
2023/06/14 01:26:55;;;;;;;5.25;2.00;;;15.80;65.40;;;;;;5083343;27;20031;-77
2023/06/14 01:29:22;;;;;;;6.60;2.50;;;15.80;65.50;;;;;;5132488;27;20035;-78
2023/06/14 01:31:49;;;;;;;4.28;1.73;;;15.70;66.00;;;;;;5133573;27;20387;-77
2023/06/14 01:34:15;;;;;;;4.50;2.00;;;15.70;66.20;;;;;;5116164;27;20501;-77
2023/06/14 01:36:43;;;;;;;3.22;1.80;;;15.70;66.10;;;;;;5115942;27;20031;-77
2023/06/14 01:39:13;;;;;;;3.53;1.80;;;15.60;66.60;;;;;;5132973;27;20043;-78
2023/06/14 01:41:40;;;;;;;3.30;2.05;;;15.60;66.90;;;;;;5133480;27;20410;-78
2023/06/14 01:44:07;;;;;;;7.57;2.10;;;15.60;66.90;;;;;;5133150;27;20042;-78
2023/06/14 01:46:33;;;;;;;4.50;2.08;;;15.50;67.30;;;;;;5131947;27;20031;-78
2023/06/14 01:48:59;;;;;;;4.45;1.58;;;15.50;67.20;;;;;;5132957;27;20104;-77
2023/06/14 01:51:25;;;;;;;5.93;1.73;;;15.50;67.30;;;;;;5133052;27;20035;-77
2023/06/14 01:53:51;;;;;;;3.15;1.95;;;15.50;67.60;;;;;;5082357;28;20035;-77
2023/06/14 01:56:17;;;;;;;4.78;1.60;;;15.50;68.00;;;;;;5115907;27;20046;-77
2023/06/14 01:58:43;;;;;;;2.45;1.80;;;15.50;68.10;;;;;;5132838;27;20050;-78
2023/06/14 02:01:09;;;;;;;3.55;1.98;;;15.50;67.90;;;;;;5132752;27;20039;-78
2023/06/14 02:03:34;;;;;;;3.25;2.00;;;15.40;68.20;;;;;;5097644;28;20065;-77
2023/06/14 02:06:00;;;;;;;8.27;2.05;;;15.40;68.20;;;;;;5115799;28;20467;-78
2023/06/14 02:08:26;;;;;;;2.38;1.73;;;15.40;68.40;;;;;;5115652;28;20047;-78
2023/06/14 02:10:52;;;;;;;3.25;1.88;;;15.40;68.70;;;;;;5115571;28;20052;-77
2023/06/14 02:13:17;;;;;;;3.75;1.67;;;15.40;69.00;;;;;;5098568;28;20122;-77
2023/06/14 02:15:45;;;;;;;4.45;1.92;;;15.30;69.10;;;;;;5115848;28;20043;-77
2023/06/14 02:18:12;;;;;;;3.53;1.80;;;15.20;69.40;;;;;;5115538;28;20043;-78
2023/06/14 02:20:38;;;;;;;3.13;2.13;;;15.20;69.30;;;;;;5114741;28;20043;-78
2023/06/14 02:23:03;;;;;;;5.60;1.65;;;15.20;69.60;;;;;;5132449;28;20060;-77
2023/06/14 02:25:29;;;;;;;4.22;1.85;;;15.20;69.90;;;;;;5098441;28;20032;-77
2023/06/14 02:27:55;;;;;;;3.72;1.83;;;15.20;69.90;;;;;;5115353;28;20404;-78
2023/06/14 02:30:21;;;;;;;4.38;1.65;;;15.20;70.00;;;;;;5115679;28;20065;-78
2023/06/14 02:32:48;;;;;;;3.38;1.77;;;15.20;70.70;;;;;;5132559;28;20550;-78
2023/06/14 02:35:14;;;;;;;3.42;2.17;;;15.20;70.40;;;;;;5098454;28;20669;-77
2023/06/14 02:37:40;;;;;;;5.90;2.30;;;15.20;70.30;;;;;;5131605;27;20444;-78
2023/06/14 02:40:08;;;;;;;3.60;1.88;;;15.20;71.00;;;;;;5102054;27;20398;-78
2023/06/14 02:42:35;;;;;;;4.07;2.20;;;15.20;70.70;;;;;;5119686;27;20051;-77
2023/06/14 02:45:02;;;;;;;4.18;2.10;;;15.20;71.00;;;;;;5119362;27;20041;-78
2023/06/14 02:47:27;;;;;;;4.05;1.95;;;15.10;71.30;;;;;;5136267;27;20039;-78
2023/06/14 02:49:53;;;;;;;3.53;2.00;;;15.10;71.60;;;;;;5119467;27;20076;-78
2023/06/14 02:52:20;;;;;;;3.33;1.98;;;15.10;71.50;;;;;;5101202;27;20084;-77
2023/06/14 02:54:47;;;;;;;6.75;2.05;;;15.00;71.80;;;;;;5102243;27;20042;-77
2023/06/14 02:57:12;;;;;;;2.72;2.45;;;15.00;73.10;;;;;;5102396;27;20049;-78
2023/06/14 02:59:38;;;;;;;4.40;2.35;;;15.00;72.30;;;;;;5118822;27;20039;-78
2023/06/14 03:02:04;;;;;;;4.90;2.08;;;15.00;72.40;;;;;;5135431;27;20047;-78
2023/06/14 03:04:34;;;;;;;4.05;2.40;;;15.00;72.20;;;;;;5118521;27;20047;-78
2023/06/14 03:07:02;;;;;;;3.40;2.28;;;14.90;72.50;;;;;;5101542;27;20502;-77
2023/06/14 03:09:28;;;;;;;5.25;2.53;;;14.90;72.80;;;;;;5117414;27;20482;-76
2023/06/14 03:11:54;;;;;;;6.00;2.30;;;14.80;73.30;;;;;;5118151;27;20085;-77
2023/06/14 03:14:21;;;;;;;4.45;2.13;;;14.80;73.50;;;;;;5084916;27;20054;-76
2023/06/14 03:16:46;;;;;;;5.90;2.55;;;14.80;73.50;;;;;;5102080;27;20130;-76
2023/06/14 03:19:12;;;;;;;3.85;2.30;;;14.80;73.30;;;;;;5101948;27;20085;-76
2023/06/14 03:21:43;;;;;;;4.72;2.38;;;14.70;73.90;;;;;;5101405;27;20406;-78
2023/06/14 03:24:09;;;;;;;4.05;2.28;;;14.80;73.60;;;;;;5135242;27;20498;-76
2023/06/14 03:26:36;;;;;;;4.35;2.33;;;14.70;73.90;;;;;;5118460;27;20068;-77
2023/06/14 03:29:02;;;;;;;4.97;2.40;;;14.70;73.90;;;;;;5118808;27;20035;-77
2023/06/14 03:31:32;;;;;;;4.93;2.50;;;14.70;74.70;;;;;;5118414;27;20039;-77
2023/06/14 03:33:58;;;;;;;3.42;2.20;;;14.70;74.20;;;;;;5135731;27;20042;-77
2023/06/14 03:36:25;;;;;;;3.30;2.33;;;14.60;74.40;;;;;;5135397;27;20131;-77
2023/06/14 03:38:51;;;;;;;5.03;3.00;;;14.60;75.00;;;;;;5119235;27;20493;-76
2023/06/14 03:41:17;;;;;;;4.75;2.60;;;14.60;74.70;;;;;;5135565;27;20122;-76
2023/06/14 03:43:42;;;;;;;3.63;2.70;;;14.60;74.80;;;;;;5134388;27;20031;-78
2023/06/14 03:46:08;;;;;;;4.68;2.78;;;14.60;74.50;;;;;;5118334;27;20127;-77
2023/06/14 03:48:34;;;;;;;4.53;2.78;;;14.60;74.70;;;;;;5118079;27;20479;-77
2023/06/14 03:50:59;;;;;;;5.32;2.50;;;14.60;74.80;;;;;;5101120;27;20039;-77
2023/06/14 03:53:27;;;;;;;6.00;2.80;;;14.50;75.30;;;;;;5118121;27;20126;-77
2023/06/14 03:55:53;;;;;;;6.28;3.13;;;14.50;75.40;;;;;;5135281;27;20112;-76
2023/06/14 03:58:19;;;;;;;6.57;3.08;;;14.50;75.10;;;;;;5117924;27;20046;-77
2023/06/14 04:00:45;;;;;;;4.82;2.53;;;14.60;75.30;;;;;;5117048;27;20043;-77
2023/06/14 04:03:13;;;;;;;4.95;2.65;;;14.60;75.70;;;;;;5135182;27;20403;-77
2023/06/14 04:05:42;;;;;;;5.93;3.03;;;14.60;75.50;;;;;;5101106;27;20467;-76
2023/06/14 04:08:08;;;;;;;7.30;2.72;;;14.60;75.30;;;;;;5135066;27;20429;-76
2023/06/14 04:10:34;;;;;;;5.80;3.05;;;14.70;75.50;;;;;;5117808;27;20043;-77
2023/06/14 04:13:00;;;;;;;3.75;2.70;;;14.70;75.90;;;;;;5134746;27;20095;-77
2023/06/14 04:15:28;;;;;;;3.95;3.05;;;14.70;75.90;;;;;;5100730;27;20035;-76
2023/06/14 04:17:57;;;;;;;5.13;3.00;;;14.70;76.10;;;;;;5116385;27;20051;-77
2023/06/14 04:20:24;;;;;;;4.85;2.85;;;14.80;76.00;;;;;;5134486;27;20562;-77
2023/06/14 04:22:49;;;;;;;3.55;2.65;;;14.80;76.10;;;;;;5117715;27;20491;-76
2023/06/14 04:25:15;;;;;;;4.05;2.50;;;14.80;76.10;;;;;;5100610;27;20046;-76
2023/06/14 04:27:41;;;;;;;3.55;2.70;;;14.90;76.00;;;;;;5134485;27;20039;-76
2023/06/14 04:30:07;;;;;;;4.57;2.60;;;14.90;75.80;;;;;;5139340;27;20521;-76
2023/06/14 04:32:34;;;;;;;9.07;2.53;;;15.00;75.90;;;;;;5138302;27;20128;-76
2023/06/14 04:35:03;;;;;;;7.60;2.83;;;15.00;75.70;;;;;;5138378;27;20144;-75
2023/06/14 04:37:30;;;;;;;4.22;2.67;;;15.00;76.50;;;;;;5138449;27;20121;-76
2023/06/14 04:39:56;;;;;;;5.18;2.67;;;15.00;76.00;;;;;;5155120;27;20100;-76
2023/06/14 04:42:24;;;;;;;7.03;2.78;;;15.20;76.30;;;;;;5155373;27;20039;-76
2023/06/14 04:44:55;;;;;;;7.55;3.08;;;15.20;76.20;;;;;;5132840;27;20114;-76
2023/06/14 04:47:20;;;;;;;4.00;2.45;;;15.30;75.80;;;;;;5117288;27;20043;-76
2023/06/14 04:49:46;;;;;;;3.05;2.25;;;15.30;75.70;;;;;;5134340;27;20046;-76
2023/06/14 04:52:13;;;;;;;3.63;2.80;;;15.40;75.30;;;;;;5134017;27;20096;-76
2023/06/14 04:54:42;;;;;;;3.47;2.75;;;15.40;75.90;;;;;;5117204;27;20482;-76
2023/06/14 04:57:14;;;;;;;5.57;2.70;;;15.50;75.90;;;;;;5083355;27;20042;-76
2023/06/14 04:59:40;;;;;;;7.00;3.20;;;15.50;75.40;;;;;;5133855;27;20162;-76
2023/06/14 05:02:06;;;;;;;6.32;3.30;;;15.50;75.10;;;;;;5115288;27;20038;-75
2023/06/14 05:04:33;;;;;;;3.28;2.60;;;15.60;75.20;;;;;;5134087;27;20061;-76
2023/06/14 05:06:59;;;;;;;4.97;2.83;;;15.70;74.90;;;;;;5116546;27;20471;-75
2023/06/14 05:09:25;;;;;;;7.50;3.65;;;15.70;74.30;;;;;;5133379;27;20080;-75
2023/06/14 05:11:50;;;;;;;6.10;2.90;;;15.80;74.20;;;;;;5099741;27;20035;-75
2023/06/14 05:14:17;;;;;;;10.95;3.85;;;15.80;74.30;;;;;;5133449;27;20356;-73
2023/06/14 05:16:43;;;;;;;5.18;2.80;;;15.90;74.00;;;;;;5116374;27;20043;-74
2023/06/14 05:19:10;;;;;;;6.38;2.85;;;15.90;73.90;;;;;;5116391;27;20114;-74
2023/06/14 05:21:37;;;;;;;5.47;2.78;;;15.90;73.50;;;;;;5133232;27;20043;-74
2023/06/14 05:24:03;;;;;;;7.28;3.08;;;16.00;73.40;;;;;;5099757;27;20047;-75
2023/06/14 05:26:28;;;;;;;6.53;3.53;;;16.10;73.20;;;;;;5133142;27;20122;-74
2023/06/14 05:28:57;;;;;;;8.35;2.58;;;16.10;73.30;;;;;;5133380;27;20477;-74
2023/06/14 05:31:24;;;;;;;4.40;2.83;;;16.20;72.90;;;;;;5133446;27;20075;-74
2023/06/14 05:33:50;;;;;;;8.75;3.03;;;16.30;72.60;;;;;;5133128;27;20043;-73
2023/06/14 05:36:16;;;;;;;5.20;2.88;;;16.40;72.70;;;;;;5133033;27;20046;-74
2023/06/14 05:38:42;;;;;;;6.10;2.72;;;16.40;72.70;;;;;;5115994;27;20457;-74
2023/06/14 05:41:07;;;;;;;6.20;3.67;;;16.50;72.70;;;;;;5132912;27;20039;-75
2023/06/14 05:43:33;;;;;;;5.78;2.70;;;16.50;72.40;;;;;;5132922;27;20046;-74
2023/06/14 05:45:59;;;;;;;5.10;2.90;;;16.60;72.60;;;;;;5133019;27;20071;-74
2023/06/14 05:48:24;;;;;;;7.90;3.00;;;16.70;72.40;;;;;;5132880;27;20050;-74
2023/06/14 05:50:50;;;;;;;6.50;3.33;;;16.70;72.10;;;;;;5132796;27;20035;-75
2023/06/14 05:53:16;;;;;;;4.13;3.08;;;16.80;72.00;;;;;;5115687;27;20042;-74
2023/06/14 05:55:41;;;;;;;5.25;3.20;;;16.90;71.70;;;;;;5115606;27;20095;-75
2023/06/14 05:58:07;;;;;;;11.85;3.63;;;17.00;71.80;;;;;;5098753;27;20096;-74
2023/06/14 06:00:33;;;;;;;4.18;2.95;;;17.00;71.60;;;;;;5098539;27;20130;-75
2023/06/14 06:02:59;;;;;;;3.40;2.80;;;17.10;71.60;;;;;;5099061;28;20035;-76
2023/06/14 06:05:24;;;;;;;4.80;3.50;;;17.10;71.60;;;;;;5132834;27;20093;-77
2023/06/14 06:07:51;;;;;;;7.63;3.00;;;17.20;71.20;;;;;;5098834;28;20031;-77
2023/06/14 06:10:16;;;;;;;4.15;3.22;;;17.30;71.30;;;;;;5098918;28;20039;-77
2023/06/14 06:12:42;;;;;;;6.07;3.17;;;17.40;70.90;;;;;;5134114;27;20039;-78
2023/06/14 06:15:11;;;;;;;6.30;3.15;;;17.50;70.70;;;;;;5120109;27;20390;-77
2023/06/14 06:17:37;;;;;;;6.80;3.25;;;17.50;70.50;;;;;;5137095;27;20131;-78
2023/06/14 06:20:05;;;;;;;4.28;3.42;;;17.60;70.10;;;;;;5119980;27;20035;-78
2023/06/14 06:22:31;;;;;;;7.78;2.88;;;17.60;69.80;;;;;;5120001;27;20425;-78
2023/06/14 06:24:57;;;;;;;4.15;3.15;;;17.70;69.20;;;;;;5136710;27;20057;-77
2023/06/14 06:27:22;;;;;;;5.05;2.97;;;17.80;68.80;;;;;;5102354;27;20043;-78
2023/06/14 06:29:48;;;;;;;6.35;3.20;;;17.90;68.80;;;;;;5135880;27;20035;-78
2023/06/14 06:32:15;;;;;;;5.05;3.20;;;18.00;68.70;;;;;;5119641;27;20049;-77
2023/06/14 06:34:41;;;;;;;4.35;2.72;;;18.00;68.60;;;;;;5119464;27;20035;-78
2023/06/14 06:37:07;;;;;;;5.85;3.47;;;18.10;67.90;;;;;;5119453;27;20043;-77
2023/06/14 06:39:33;;;;;;;8.05;3.33;;;18.30;68.00;;;;;;5119211;27;20039;-78
2023/06/14 06:41:58;;;;;;;5.78;2.95;;;18.40;66.40;;;;;;5102420;27;20039;-78
2023/06/14 06:44:24;;;;;;;5.03;3.22;;;18.50;66.70;;;;;;5119385;27;20038;-78
2023/06/14 06:46:50;;;;;;;8.18;3.42;;;18.50;66.10;;;;;;5119556;27;20046;-78
2023/06/14 06:49:16;;;;;;;6.30;3.75;;;18.60;66.20;;;;;;5102711;27;20072;-78
2023/06/14 06:51:43;;;;;;;6.53;3.30;;;18.80;66.00;;;;;;5119522;27;20406;-78
2023/06/14 06:54:08;;;;;;;8.00;2.92;;;18.80;65.60;;;;;;5102392;27;20043;-77
2023/06/14 06:56:35;;;;;;;7.60;3.03;;;18.90;65.20;;;;;;5102205;27;20053;-76
2023/06/14 06:59:01;;;;;;;9.32;3.45;;;19.00;64.80;;;;;;5118978;27;20047;-77
2023/06/14 07:01:28;;;;;;;4.90;2.55;;;19.10;64.70;;;;;;5118875;27;20046;-77
2023/06/14 07:03:55;;;;;;;4.10;2.65;;;19.20;64.40;;;;;;5119184;27;20074;-78
2023/06/14 07:06:21;;;;;;;6.32;2.90;;;19.30;63.20;;;;;;5118501;27;20073;-76
2023/06/14 07:08:50;;;;;;;4.25;2.28;;;19.30;63.10;;;;;;5102107;27;20034;-77
2023/06/14 07:11:16;;;;;;;5.85;2.22;;;19.40;62.60;;;;;;5102351;27;20039;-77
2023/06/14 07:13:41;;;;;;;6.22;3.10;;;19.50;62.70;;;;;;5101990;27;20130;-78
2023/06/14 07:16:07;;;;;;;3.80;2.50;;;19.60;62.40;;;;;;5118826;27;20451;-78
2023/06/14 07:18:35;;;;;;;7.47;2.65;;;19.80;62.00;;;;;;5102145;27;20035;-77
2023/06/14 07:21:01;;;;;;;5.47;2.40;;;19.80;61.90;;;;;;5118768;27;20043;-77
2023/06/14 07:23:28;;;;;;;3.80;2.95;;;19.90;61.80;;;;;;5135795;27;20112;-76
2023/06/14 07:25:54;;;;;;;5.15;2.50;;;20.00;60.30;;;;;;5118230;27;20103;-76
2023/06/14 07:28:20;;;;;;;5.85;2.35;;;20.10;60.70;;;;;;5118689;27;20035;-77
2023/06/14 07:30:46;;;;;;;4.57;2.50;;;20.20;60.80;;;;;;5101954;27;20042;-76
2023/06/14 07:33:12;;;;;;;6.43;2.70;;;20.30;59.70;;;;;;5106017;28;20411;-76
2023/06/14 07:35:38;;;;;;;4.30;2.13;;;20.40;59.50;;;;;;5115511;28;20048;-76
2023/06/14 07:38:06;;;;;;;4.45;2.25;;;20.50;59.70;;;;;;5098436;28;20051;-76
2023/06/14 07:40:32;;;;;;;6.38;2.30;;;20.60;58.20;;;;;;5115247;28;20111;-77
2023/06/14 07:42:58;;;;;;;3.90;2.67;;;20.70;57.60;;;;;;5098018;28;20550;-76
2023/06/14 07:45:23;;;;;;;4.25;2.22;;;20.90;57.60;;;;;;5114898;28;20036;-76
2023/06/14 07:47:49;;;;;;;5.30;2.67;;;20.90;57.50;;;;;;5098103;28;20031;-77
2023/06/14 07:50:15;;;;;;;8.40;2.78;;;21.10;57.60;;;;;;5115305;28;20400;-77
2023/06/14 07:52:41;;;;;;;7.10;2.50;;;21.20;57.30;;;;;;5114937;28;20036;-76
2023/06/14 07:55:07;;;;;;;3.67;2.30;;;21.30;56.50;;;;;;5115008;28;20035;-76
2023/06/14 07:57:33;;;;;;;4.28;2.17;;;21.40;56.50;;;;;;5097796;28;20126;-77
2023/06/14 07:59:58;;;;;;;3.20;2.00;;;21.50;56.10;;;;;;5114812;28;20127;-77
2023/06/14 08:02:24;;;;;;;4.00;2.08;;;21.60;55.60;;;;;;5115066;28;20043;-76
2023/06/14 08:04:50;;;;;;;3.38;2.15;;;21.60;55.30;;;;;;5081101;28;20039;-76
2023/06/14 08:07:15;;;;;;;9.63;2.20;;;21.70;54.10;;;;;;5064222;28;20039;-77
2023/06/14 08:09:41;;;;;;;5.60;2.90;;;21.90;53.60;;;;;;5098054;28;20040;-78
2023/06/14 08:12:09;;;;;;;10.07;2.40;;;21.90;52.10;;;;;;5098015;28;20047;-78
2023/06/14 08:14:35;;;;;;;3.80;2.42;;;22.00;51.20;;;;;;5115091;28;20058;-78
2023/06/14 08:17:01;;;;;;;3.78;2.00;;;22.00;51.00;;;;;;5114739;28;20048;-79
2023/06/14 08:19:27;;;;;;;3.25;2.10;;;22.00;49.90;;;;;;5114846;28;20044;-78
2023/06/14 08:21:54;;;;;;;5.05;2.63;;;22.00;50.10;;;;;;5114650;28;20070;-77
2023/06/14 08:24:24;;;;;;;6.97;2.63;;;22.10;50.50;;;;;;5114900;28;20040;-78
2023/06/14 08:27:10;;;;;;;4.53;2.30;;;22.20;51.30;;;;;;5097829;28;20136;-79
2023/06/14 08:29:38;;;;;;;4.60;2.28;;;22.40;49.60;;;;;;5081600;28;20040;-78
2023/06/14 08:32:04;;;;;;;3.38;2.28;;;22.40;49.30;;;;;;5097359;28;20483;-77
2023/06/14 08:34:30;;;;;;;4.57;2.20;;;22.40;48.90;;;;;;5097559;28;20042;-76
2023/06/14 08:36:56;;;;;;;6.18;2.70;;;22.40;49.80;;;;;;5113344;28;20043;-78
2023/06/14 08:39:22;;;;;;;8.25;2.90;;;22.50;49.80;;;;;;5097132;28;20040;-78
2023/06/14 08:41:50;;;;;;;7.07;2.75;;;22.70;50.70;;;;;;5114079;28;20048;-77
2023/06/14 08:44:17;;;;;;;7.53;2.30;;;22.80;50.30;;;;;;5097370;28;20039;-78
2023/06/14 08:46:43;;;;;;;6.05;2.30;;;22.80;49.20;;;;;;5113926;28;20172;-78
2023/06/14 08:49:12;;;;;;;7.75;2.88;;;22.90;49.80;;;;;;5096925;28;20429;-79
2023/06/14 08:51:40;;;;;;;4.10;2.58;;;23.10;50.80;;;;;;5113863;28;20036;-75
2023/06/14 08:54:06;;;;;;;5.70;2.35;;;23.30;49.00;;;;;;5080312;28;20035;-76
2023/06/14 08:56:33;;;;;;;6.15;2.72;;;23.40;48.70;;;;;;5113962;28;20028;-79
2023/06/14 08:59:02;;;;;;;3.70;2.28;;;23.40;48.60;;;;;;5113788;28;20046;-78
2023/06/14 09:01:28;;;;;;;5.75;2.60;;;23.60;48.50;;;;;;5096548;28;20072;-77
2023/06/14 09:03:57;;;;;;;5.53;2.38;;;23.60;47.60;;;;;;5096731;28;20487;-77
2023/06/14 09:06:24;;;;;;;6.18;2.30;;;23.50;47.60;;;;;;5131873;27;20037;-76
2023/06/14 09:08:50;;;;;;;16.92;3.67;;;23.60;48.30;;;;;;5099350;27;20459;-76
2023/06/14 09:11:19;;;;;;;5.55;2.90;;;23.70;48.50;;;;;;5116104;27;20540;-77
2023/06/14 09:13:46;;;;;;;4.05;2.33;;;23.90;49.10;;;;;;5116290;27;20039;-77
2023/06/14 09:16:12;;;;;;;6.65;2.20;;;23.90;48.10;;;;;;5116198;27;20070;-77
2023/06/14 09:18:40;;;;;;;6.65;2.50;;;24.00;47.10;;;;;;5133563;27;20101;-76
2023/06/14 09:21:08;;;;;;;8.60;2.33;;;24.20;47.40;;;;;;5133242;27;20036;-77
2023/06/14 09:23:40;;;;;;;4.10;2.50;;;24.20;46.00;;;;;;5133576;27;20051;-79
2023/06/14 09:26:11;;;;;;;10.68;2.88;;;24.40;46.30;;;;;;5116204;27;20039;-76
2023/06/14 09:28:42;;;;;;;3.35;2.10;;;24.50;46.50;;;;;;5116131;27;20035;-77
2023/06/14 09:31:09;;;;;;;4.18;1.92;;;24.60;45.70;;;;;;5116351;27;20050;-77
2023/06/14 09:33:35;;;;;;;5.72;2.70;;;24.50;44.10;;;;;;5133260;27;20039;-77
2023/06/14 09:36:01;;;;;;;6.93;2.58;;;24.70;45.60;;;;;;5133480;27;20394;-77
2023/06/14 09:38:30;;;;;;;5.13;2.45;;;24.80;46.10;;;;;;5133331;27;20043;-77
2023/06/14 09:40:59;;;;;;;3.33;2.08;;;24.90;46.00;;;;;;5115958;27;20031;-77
2023/06/14 09:43:27;;;;;;;6.88;2.67;;;24.90;44.00;;;;;;5115905;27;20679;-77
2023/06/14 09:45:54;;;;;;;3.17;2.25;;;25.00;43.20;;;;;;5133260;27;20061;-76
2023/06/14 09:48:20;;;;;;;4.53;3.13;;;25.10;43.70;;;;;;5132635;27;20043;-79
2023/06/14 09:50:49;;;;;;;3.42;1.98;;;25.10;43.60;;;;;;5133374;27;20386;-79
2023/06/14 09:53:17;;;;;;;4.28;1.80;;;25.20;43.70;;;;;;5099236;27;20492;-80
2023/06/14 09:55:43;;;;;;;3.50;2.25;;;25.40;44.00;;;;;;5133009;27;20529;-78
2023/06/14 09:58:11;;;;;;;5.30;2.28;;;25.50;43.60;;;;;;5099038;27;20039;-76
2023/06/14 10:00:40;;;;;;;3.95;2.08;;;25.50;43.80;;;;;;5132672;27;20061;-76
2023/06/14 10:03:12;;;;;;;2.97;2.28;;;25.50;43.30;;;;;;5132911;27;20070;-77
2023/06/14 10:05:41;;;;;;;5.03;2.22;;;25.70;42.60;;;;;;5115934;27;20054;-76
2023/06/14 10:08:17;;;;;;;3.13;2.25;;;25.40;42.10;;;;;;5115447;27;20035;-77
2023/06/14 10:10:44;;;;;;;3.63;2.20;;;25.70;43.80;;;;;;5133070;28;20413;-78
2023/06/14 10:13:11;;;;;;;4.63;1.58;;;25.80;40.40;;;;;;5115639;28;20039;-76
2023/06/14 10:15:58;;;;;;;4.07;1.95;;;25.90;42.40;;;;;;5098932;28;20047;-77
2023/06/14 10:18:53;;;;;;;6.50;2.58;;;26.00;40.80;;;;;;5132512;28;20079;-77
2023/06/14 10:21:56;;;;;;;3.90;2.10;;;26.10;40.80;;;;;;5115469;28;20047;-76
2023/06/14 10:24:32;;;;;;;3.67;2.25;;;26.10;40.80;;;;;;5115833;28;20066;-76
2023/06/14 10:27:02;;;;;;;3.58;1.88;;;26.20;41.10;;;;;;5115376;28;20043;-76
2023/06/14 10:29:32;;;;;;;3.25;1.90;;;26.30;42.70;;;;;;5132893;28;20074;-75
2023/06/14 10:31:59;;;;;;;6.40;1.90;;;26.40;42.50;;;;;;5115652;28;20038;-76
2023/06/14 10:34:31;;;;;;;5.30;2.00;;;26.50;40.90;;;;;;5115386;28;20047;-76
2023/06/14 10:37:06;;;;;;;4.10;2.17;;;26.50;40.40;;;;;;5114960;28;20039;-77
2023/06/14 10:39:44;;;;;;;4.10;2.15;;;26.60;40.30;;;;;;5132574;28;20043;-76
2023/06/14 10:42:09;;;;;;;5.20;1.98;;;26.70;42.00;;;;;;5115470;28;20046;-76
2023/06/14 10:44:40;;;;;;;6.45;2.67;;;26.70;42.10;;;;;;5132297;28;20031;-77
2023/06/14 10:47:35;;;;;;;6.60;2.60;;;26.80;40.70;;;;;;5132330;28;20081;-78
2023/06/14 10:50:14;;;;;;;4.78;2.30;;;26.80;39.50;;;;;;5132480;28;20510;-76
2023/06/14 10:52:43;;;;;;;3.65;2.17;;;27.00;40.60;;;;;;5132583;28;20039;-77
2023/06/14 10:55:17;;;;;;;2.75;1.90;;;27.10;39.70;;;;;;5132318;28;20042;-78
2023/06/14 10:57:58;;;;;;;5.20;2.65;;;26.90;38.40;;;;;;5114936;28;20035;-77
2023/06/14 11:00:26;;;;;;;5.82;2.40;;;26.90;39.40;;;;;;5117556;27;20258;-77
2023/06/14 11:03:13;;;;;;;7.55;2.83;;;27.00;40.70;;;;;;5117949;27;20047;-76
2023/06/14 11:05:55;;;;;;;9.40;2.78;;;27.00;41.60;;;;;;5117391;27;20505;-77
2023/06/14 11:08:59;;;;;;;3.15;2.17;;;27.20;40.40;;;;;;5134045;27;20075;-77
2023/06/14 11:11:35;;;;;;;7.73;2.37;;;26.90;38.50;;;;;;5134942;27;20050;-76
2023/06/14 11:14:02;;;;;;;3.95;1.98;;;27.00;38.70;;;;;;5134342;27;20276;-77
2023/06/14 11:16:28;;;;;;;7.85;2.33;;;27.00;38.70;;;;;;5117045;27;20363;-76
2023/06/14 11:18:54;;;;;;;7.40;2.33;;;27.10;39.20;;;;;;5119269;27;20134;-76
2023/06/14 11:21:20;;;;;;;8.63;2.70;;;27.30;39.70;;;;;;5136131;27;20453;-76
2023/06/14 11:23:50;;;;;;;6.55;2.67;;;27.30;38.90;;;;;;5118892;27;20116;-76
2023/06/14 11:26:23;;;;;;;4.07;1.85;;;27.30;38.00;;;;;;5097151;28;20533;-77
2023/06/14 11:28:55;;;;;;;3.97;2.08;;;27.50;38.30;;;;;;5098414;28;20035;-79
2023/06/14 11:31:21;;;;;;;5.57;2.60;;;27.50;36.90;;;;;;5115787;28;20097;-76
2023/06/14 11:33:50;;;;;;;4.38;2.70;;;27.70;38.20;;;;;;5098360;28;20047;-77
2023/06/14 11:36:16;;;;;;;6.63;2.67;;;27.90;38.80;;;;;;5115509;28;20048;-76
2023/06/14 11:38:42;;;;;;;3.83;2.45;;;27.90;39.00;;;;;;5098454;28;20108;-77
2023/06/14 11:41:08;;;;;;;5.63;2.70;;;28.10;39.00;;;;;;5114692;28;20036;-77
2023/06/14 11:43:35;;;;;;;8.88;2.50;;;28.10;39.20;;;;;;5117534;27;20039;-76
2023/06/14 11:46:01;;;;;;;8.13;2.58;;;28.20;39.30;;;;;;5097942;28;20046;-78
2023/06/14 11:48:41;;;;;;;10.27;2.28;;;28.20;38.00;;;;;;5115105;27;20530;-78
2023/06/14 11:51:07;;;;;;;61.20;7.30;;;28.40;38.80;;;;;;5134330;27;20240;-78
2023/06/14 11:53:33;;;;;;;5.15;2.30;;;28.60;38.80;;;;;;5101897;27;20046;-78
2023/06/14 11:56:00;;;;;;;9.60;3.05;;;28.50;37.20;;;;;;5102044;27;20391;-78
2023/06/14 11:58:27;;;;;;;4.45;3.05;;;28.50;38.00;;;;;;5135667;27;20066;-78
2023/06/14 12:00:53;;;;;;;4.72;2.40;;;28.70;38.50;;;;;;5135547;27;20037;-77
2023/06/14 12:03:25;;;;;;;6.38;2.25;;;28.70;37.90;;;;;;5099146;28;20514;-78
2023/06/14 12:06:01;;;;;;;5.47;2.15;;;28.90;37.30;;;;;;5098093;28;20043;-78
2023/06/14 12:08:41;;;;;;;7.65;2.67;;;28.90;38.30;;;;;;5099747;28;20067;-78
2023/06/14 12:11:13;;;;;;;4.55;2.20;;;29.20;38.50;;;;;;5097867;28;20045;-77
2023/06/14 12:13:40;;;;;;;8.40;2.67;;;29.10;38.10;;;;;;5115454;28;20039;-77
2023/06/14 12:16:10;;;;;;;5.55;2.20;;;29.00;37.80;;;;;;5098279;28;20105;-78
2023/06/14 12:18:39;;;;;;;15.43;2.78;;;29.00;37.50;;;;;;5110371;27;20088;-77
2023/06/14 12:21:09;;;;;;;9.50;2.40;;;29.20;37.30;;;;;;5118999;27;20038;-77
2023/06/14 12:23:49;;;;;;;7.63;2.85;;;29.10;36.10;;;;;;5135525;27;20130;-78
2023/06/14 12:26:16;;;;;;;6.47;2.50;;;29.30;36.90;;;;;;5118367;27;20433;-79
2023/06/14 12:28:44;;;;;;;8.02;2.25;;;29.40;36.70;;;;;;5118752;27;20061;-78
2023/06/14 12:31:12;;;;;;;5.60;2.08;;;29.30;36.70;;;;;;5118065;27;20038;-79
2023/06/14 12:33:38;;;;;;;3.13;1.80;;;29.60;37.30;;;;;;5118646;27;20388;-79
2023/06/14 12:36:05;;;;;;;4.47;1.95;;;29.60;35.70;;;;;;5118179;27;20068;-78
2023/06/14 12:38:32;;;;;;;4.93;2.00;;;29.90;36.30;;;;;;5127700;27;20046;-77
2023/06/14 12:40:58;;;;;;;4.97;1.95;;;30.00;36.70;;;;;;5099075;28;20073;-76
2023/06/14 12:43:24;;;;;;;5.13;2.60;;;29.60;35.90;;;;;;5104769;27;20123;-77
2023/06/14 12:45:49;;;;;;;5.38;1.92;;;29.50;36.10;;;;;;5122023;27;20035;-77
2023/06/14 12:48:15;;;;;;;4.80;1.90;;;29.80;37.70;;;;;;5102258;27;20039;-76